sensor_id;sensor_type;location;lat;lon;timestamp;P1;durP1;ratioP1;P2;durP2;ratioP2
17451;SDS011;8843;48.838;9.324;2022-07-10T00:00:27;6.57;;;4.00;;
17451;SDS011;8843;48.838;9.324;2022-07-10T00:02:55;4.03;;;3.63;;
17451;SDS011;8843;48.838;9.324;2022-07-10T00:05:22;4.23;;;3.33;;
17451;SDS011;8843;48.838;9.324;2022-07-10T00:07:52;3.40;;;3.10;;
17451;SDS011;8843;48.838;9.324;2022-07-10T00:10:19;4.53;;;3.30;;
17451;SDS011;8843;48.838;9.324;2022-07-10T00:12:47;3.87;;;3.40;;
17451;SDS011;8843;48.838;9.324;2022-07-10T00:15:14;3.43;;;3.23;;
17451;SDS011;8843;48.838;9.324;2022-07-10T00:17:42;3.83;;;3.50;;
17451;SDS011;8843;48.838;9.324;2022-07-10T00:20:09;4.27;;;3.27;;
17451;SDS011;8843;48.838;9.324;2022-07-10T00:22:37;3.60;;;3.30;;
17451;SDS011;8843;48.838;9.324;2022-07-10T00:25:07;4.33;;;3.50;;
17451;SDS011;8843;48.838;9.324;2022-07-10T00:27:35;3.40;;;3.10;;
17451;SDS011;8843;48.838;9.324;2022-07-10T00:30:02;3.53;;;3.23;;
17451;SDS011;8843;48.838;9.324;2022-07-10T00:32:30;3.57;;;3.23;;
17451;SDS011;8843;48.838;9.324;2022-07-10T00:34:57;5.00;;;3.27;;
17451;SDS011;8843;48.838;9.324;2022-07-10T00:37:24;3.20;;;3.00;;
17451;SDS011;8843;48.838;9.324;2022-07-10T00:39:51;2.90;;;2.70;;
17451;SDS011;8843;48.838;9.324;2022-07-10T00:42:19;3.20;;;2.90;;
17451;SDS011;8843;48.838;9.324;2022-07-10T00:44:46;3.03;;;2.80;;
17451;SDS011;8843;48.838;9.324;2022-07-10T00:47:13;3.30;;;3.10;;
17451;SDS011;8843;48.838;9.324;2022-07-10T00:49:44;3.47;;;3.17;;
17451;SDS011;8843;48.838;9.324;2022-07-10T00:52:12;3.03;;;2.83;;
17451;SDS011;8843;48.838;9.324;2022-07-10T00:54:42;3.63;;;3.27;;
17451;SDS011;8843;48.838;9.324;2022-07-10T00:57:10;3.63;;;3.33;;
17451;SDS011;8843;48.838;9.324;2022-07-10T00:59:41;6.33;;;3.57;;
17451;SDS011;8843;48.838;9.324;2022-07-10T01:02:09;4.77;;;3.53;;
17451;SDS011;8843;48.838;9.324;2022-07-10T01:04:37;3.83;;;3.33;;
17451;SDS011;8843;48.838;9.324;2022-07-10T01:07:04;3.57;;;3.27;;
17451;SDS011;8843;48.838;9.324;2022-07-10T01:09:31;4.50;;;3.33;;
17451;SDS011;8843;48.838;9.324;2022-07-10T01:11:59;5.23;;;3.30;;
17451;SDS011;8843;48.838;9.324;2022-07-10T01:14:27;3.73;;;3.43;;
17451;SDS011;8843;48.838;9.324;2022-07-10T01:16:55;3.83;;;3.30;;
17451;SDS011;8843;48.838;9.324;2022-07-10T01:19:23;4.40;;;3.40;;
17451;SDS011;8843;48.838;9.324;2022-07-10T01:21:51;4.10;;;3.77;;
17451;SDS011;8843;48.838;9.324;2022-07-10T01:24:18;3.87;;;3.57;;
17451;SDS011;8843;48.838;9.324;2022-07-10T01:26:45;3.40;;;3.10;;
17451;SDS011;8843;48.838;9.324;2022-07-10T01:29:12;3.80;;;3.47;;
17451;SDS011;8843;48.838;9.324;2022-07-10T01:31:39;4.57;;;3.70;;
17451;SDS011;8843;48.838;9.324;2022-07-10T01:34:07;4.53;;;3.40;;
17451;SDS011;8843;48.838;9.324;2022-07-10T01:36:35;3.63;;;3.27;;
17451;SDS011;8843;48.838;9.324;2022-07-10T01:39:04;4.00;;;3.70;;
17451;SDS011;8843;48.838;9.324;2022-07-10T01:41:32;3.67;;;3.37;;
17451;SDS011;8843;48.838;9.324;2022-07-10T01:44:00;4.20;;;3.80;;
17451;SDS011;8843;48.838;9.324;2022-07-10T01:46:27;4.60;;;4.10;;
17451;SDS011;8843;48.838;9.324;2022-07-10T01:48:54;4.17;;;3.77;;
17451;SDS011;8843;48.838;9.324;2022-07-10T01:51:21;3.97;;;3.47;;
17451;SDS011;8843;48.838;9.324;2022-07-10T01:53:48;4.10;;;3.40;;
17451;SDS011;8843;48.838;9.324;2022-07-10T01:56:17;3.23;;;2.93;;
17451;SDS011;8843;48.838;9.324;2022-07-10T01:58:44;3.50;;;3.20;;
17451;SDS011;8843;48.838;9.324;2022-07-10T02:01:12;3.40;;;3.20;;
17451;SDS011;8843;48.838;9.324;2022-07-10T02:03:39;7.57;;;4.20;;
17451;SDS011;8843;48.838;9.324;2022-07-10T02:06:23;5.83;;;3.63;;
17451;SDS011;8843;48.838;9.324;2022-07-10T02:08:50;4.20;;;3.80;;
17451;SDS011;8843;48.838;9.324;2022-07-10T02:11:18;5.97;;;3.60;;
17451;SDS011;8843;48.838;9.324;2022-07-10T02:13:45;3.40;;;3.10;;
17451;SDS011;8843;48.838;9.324;2022-07-10T02:16:12;3.63;;;3.17;;
17451;SDS011;8843;48.838;9.324;2022-07-10T02:18:39;4.00;;;3.67;;
17451;SDS011;8843;48.838;9.324;2022-07-10T02:21:07;4.33;;;3.00;;
17451;SDS011;8843;48.838;9.324;2022-07-10T02:23:34;3.50;;;3.20;;
17451;SDS011;8843;48.838;9.324;2022-07-10T02:26:01;3.50;;;3.20;;
17451;SDS011;8843;48.838;9.324;2022-07-10T02:28:29;3.93;;;3.50;;
17451;SDS011;8843;48.838;9.324;2022-07-10T02:30:56;4.17;;;3.40;;
17451;SDS011;8843;48.838;9.324;2022-07-10T02:33:24;3.70;;;3.40;;
17451;SDS011;8843;48.838;9.324;2022-07-10T02:35:51;5.10;;;3.73;;
17451;SDS011;8843;48.838;9.324;2022-07-10T02:38:18;4.43;;;3.30;;
17451;SDS011;8843;48.838;9.324;2022-07-10T02:40:45;3.77;;;3.40;;
17451;SDS011;8843;48.838;9.324;2022-07-10T02:43:12;3.87;;;3.00;;
17451;SDS011;8843;48.838;9.324;2022-07-10T02:45:40;4.10;;;3.17;;
17451;SDS011;8843;48.838;9.324;2022-07-10T02:48:07;5.27;;;3.60;;
17451;SDS011;8843;48.838;9.324;2022-07-10T02:50:34;3.73;;;3.43;;
17451;SDS011;8843;48.838;9.324;2022-07-10T02:53:01;3.80;;;3.50;;
17451;SDS011;8843;48.838;9.324;2022-07-10T02:55:28;3.87;;;3.50;;
17451;SDS011;8843;48.838;9.324;2022-07-10T02:57:56;3.97;;;3.40;;
17451;SDS011;8843;48.838;9.324;2022-07-10T03:00:24;5.37;;;3.90;;
17451;SDS011;8843;48.838;9.324;2022-07-10T03:02:53;3.93;;;3.10;;
17451;SDS011;8843;48.838;9.324;2022-07-10T03:05:20;3.50;;;3.20;;
17451;SDS011;8843;48.838;9.324;2022-07-10T03:07:47;4.30;;;3.57;;
17451;SDS011;8843;48.838;9.324;2022-07-10T03:10:14;4.73;;;3.40;;
17451;SDS011;8843;48.838;9.324;2022-07-10T03:12:40;4.63;;;4.20;;
17451;SDS011;8843;48.838;9.324;2022-07-10T03:15:08;5.63;;;3.70;;
17451;SDS011;8843;48.838;9.324;2022-07-10T03:17:35;4.10;;;3.80;;
17451;SDS011;8843;48.838;9.324;2022-07-10T03:20:04;3.37;;;3.07;;
17451;SDS011;8843;48.838;9.324;2022-07-10T03:22:32;3.60;;;3.30;;
17451;SDS011;8843;48.838;9.324;2022-07-10T03:24:59;4.47;;;3.80;;
17451;SDS011;8843;48.838;9.324;2022-07-10T03:27:26;3.97;;;3.60;;
17451;SDS011;8843;48.838;9.324;2022-07-10T03:29:53;3.47;;;3.17;;
17451;SDS011;8843;48.838;9.324;2022-07-10T03:32:19;3.70;;;3.43;;
17451;SDS011;8843;48.838;9.324;2022-07-10T03:34:46;4.53;;;3.33;;
17451;SDS011;8843;48.838;9.324;2022-07-10T03:37:15;3.70;;;3.13;;
17451;SDS011;8843;48.838;9.324;2022-07-10T03:39:41;4.37;;;3.53;;
17451;SDS011;8843;48.838;9.324;2022-07-10T03:42:08;4.13;;;3.70;;
17451;SDS011;8843;48.838;9.324;2022-07-10T03:44:35;4.10;;;3.70;;
17451;SDS011;8843;48.838;9.324;2022-07-10T03:47:02;3.63;;;3.33;;
17451;SDS011;8843;48.838;9.324;2022-07-10T03:49:30;4.00;;;3.70;;
17451;SDS011;8843;48.838;9.324;2022-07-10T03:51:58;4.07;;;3.77;;
17451;SDS011;8843;48.838;9.324;2022-07-10T03:54:27;5.60;;;4.03;;
17451;SDS011;8843;48.838;9.324;2022-07-10T03:56:54;5.33;;;4.17;;
17451;SDS011;8843;48.838;9.324;2022-07-10T03:59:38;4.10;;;3.80;;
17451;SDS011;8843;48.838;9.324;2022-07-10T04:02:05;4.03;;;3.73;;
17451;SDS011;8843;48.838;9.324;2022-07-10T04:04:32;4.07;;;3.77;;
17451;SDS011;8843;48.838;9.324;2022-07-10T04:06:59;4.90;;;3.73;;
17451;SDS011;8843;48.838;9.324;2022-07-10T04:09:27;4.20;;;3.90;;
17451;SDS011;8843;48.838;9.324;2022-07-10T04:11:54;8.90;;;3.70;;
17451;SDS011;8843;48.838;9.324;2022-07-10T04:14:21;4.43;;;4.03;;
17451;SDS011;8843;48.838;9.324;2022-07-10T04:16:48;7.27;;;4.10;;
17451;SDS011;8843;48.838;9.324;2022-07-10T04:19:15;5.27;;;4.30;;
17451;SDS011;8843;48.838;9.324;2022-07-10T04:21:43;4.90;;;4.40;;
17451;SDS011;8843;48.838;9.324;2022-07-10T04:24:10;4.23;;;3.83;;
17451;SDS011;8843;48.838;9.324;2022-07-10T04:26:38;6.73;;;3.90;;
17451;SDS011;8843;48.838;9.324;2022-07-10T04:29:05;4.43;;;4.03;;
17451;SDS011;8843;48.838;9.324;2022-07-10T04:31:32;4.83;;;3.83;;
17451;SDS011;8843;48.838;9.324;2022-07-10T04:33:59;4.27;;;3.87;;
17451;SDS011;8843;48.838;9.324;2022-07-10T04:36:25;5.27;;;3.87;;
17451;SDS011;8843;48.838;9.324;2022-07-10T04:38:52;5.30;;;4.57;;
17451;SDS011;8843;48.838;9.324;2022-07-10T04:41:19;5.60;;;4.00;;
17451;SDS011;8843;48.838;9.324;2022-07-10T04:43:47;8.73;;;4.43;;
17451;SDS011;8843;48.838;9.324;2022-07-10T04:46:14;8.60;;;4.27;;
17451;SDS011;8843;48.838;9.324;2022-07-10T04:48:41;6.40;;;4.10;;
17451;SDS011;8843;48.838;9.324;2022-07-10T04:51:08;4.43;;;3.67;;
17451;SDS011;8843;48.838;9.324;2022-07-10T04:53:35;5.07;;;3.60;;
17451;SDS011;8843;48.838;9.324;2022-07-10T04:56:02;4.13;;;3.37;;
17451;SDS011;8843;48.838;9.324;2022-07-10T04:58:29;3.77;;;3.43;;
17451;SDS011;8843;48.838;9.324;2022-07-10T05:00:57;3.60;;;3.30;;
17451;SDS011;8843;48.838;9.324;2022-07-10T05:03:24;4.10;;;3.70;;
17451;SDS011;8843;48.838;9.324;2022-07-10T05:05:51;4.33;;;3.77;;
17451;SDS011;8843;48.838;9.324;2022-07-10T05:08:18;7.57;;;3.10;;
17451;SDS011;8843;48.838;9.324;2022-07-10T05:10:45;5.93;;;3.80;;
17451;SDS011;8843;48.838;9.324;2022-07-10T05:13:11;4.50;;;3.70;;
17451;SDS011;8843;48.838;9.324;2022-07-10T05:15:38;3.63;;;3.27;;
17451;SDS011;8843;48.838;9.324;2022-07-10T05:18:07;6.07;;;3.93;;
17451;SDS011;8843;48.838;9.324;2022-07-10T05:20:34;3.97;;;3.50;;
17451;SDS011;8843;48.838;9.324;2022-07-10T05:23:03;3.83;;;3.40;;
17451;SDS011;8843;48.838;9.324;2022-07-10T05:25:30;3.83;;;3.30;;
17451;SDS011;8843;48.838;9.324;2022-07-10T05:27:57;3.93;;;3.53;;
17451;SDS011;8843;48.838;9.324;2022-07-10T05:30:24;5.30;;;3.10;;
17451;SDS011;8843;48.838;9.324;2022-07-10T05:32:51;4.67;;;3.27;;
17451;SDS011;8843;48.838;9.324;2022-07-10T05:35:19;3.33;;;3.07;;
17451;SDS011;8843;48.838;9.324;2022-07-10T05:37:46;5.40;;;2.87;;
17451;SDS011;8843;48.838;9.324;2022-07-10T05:40:13;3.23;;;2.93;;
17451;SDS011;8843;48.838;9.324;2022-07-10T05:42:40;3.40;;;3.10;;
17451;SDS011;8843;48.838;9.324;2022-07-10T05:45:07;3.77;;;2.97;;
17451;SDS011;8843;48.838;9.324;2022-07-10T05:47:35;3.00;;;2.60;;
17451;SDS011;8843;48.838;9.324;2022-07-10T05:50:01;2.97;;;2.70;;
17451;SDS011;8843;48.838;9.324;2022-07-10T05:52:30;3.77;;;2.87;;
17451;SDS011;8843;48.838;9.324;2022-07-10T05:54:57;3.43;;;2.50;;
17451;SDS011;8843;48.838;9.324;2022-07-10T05:57:25;5.00;;;3.10;;
17451;SDS011;8843;48.838;9.324;2022-07-10T05:59:51;4.60;;;2.40;;
17451;SDS011;8843;48.838;9.324;2022-07-10T06:02:18;2.90;;;2.33;;
17451;SDS011;8843;48.838;9.324;2022-07-10T06:04:46;4.03;;;2.60;;
17451;SDS011;8843;48.838;9.324;2022-07-10T06:07:13;4.67;;;2.60;;
17451;SDS011;8843;48.838;9.324;2022-07-10T06:09:41;5.10;;;2.60;;
17451;SDS011;8843;48.838;9.324;2022-07-10T06:12:08;3.33;;;2.70;;
17451;SDS011;8843;48.838;9.324;2022-07-10T06:14:35;2.97;;;2.47;;
17451;SDS011;8843;48.838;9.324;2022-07-10T06:17:02;2.73;;;2.50;;
17451;SDS011;8843;48.838;9.324;2022-07-10T06:19:29;3.90;;;2.33;;
17451;SDS011;8843;48.838;9.324;2022-07-10T06:21:56;4.60;;;2.83;;
17451;SDS011;8843;48.838;9.324;2022-07-10T06:24:42;4.67;;;2.87;;
17451;SDS011;8843;48.838;9.324;2022-07-10T06:27:09;3.90;;;2.40;;
17451;SDS011;8843;48.838;9.324;2022-07-10T06:29:36;2.70;;;2.00;;
17451;SDS011;8843;48.838;9.324;2022-07-10T06:32:03;3.17;;;2.20;;
17451;SDS011;8843;48.838;9.324;2022-07-10T06:34:30;5.07;;;2.47;;
17451;SDS011;8843;48.838;9.324;2022-07-10T06:36:57;2.60;;;2.33;;
17451;SDS011;8843;48.838;9.324;2022-07-10T06:39:24;3.73;;;2.10;;
17451;SDS011;8843;48.838;9.324;2022-07-10T06:41:53;2.50;;;2.30;;
17451;SDS011;8843;48.838;9.324;2022-07-10T06:44:20;3.07;;;2.40;;
17451;SDS011;8843;48.838;9.324;2022-07-10T06:46:47;4.20;;;2.13;;
17451;SDS011;8843;48.838;9.324;2022-07-10T06:49:35;2.23;;;1.87;;
17451;SDS011;8843;48.838;9.324;2022-07-10T06:52:01;3.07;;;2.17;;
17451;SDS011;8843;48.838;9.324;2022-07-10T06:54:28;2.50;;;2.13;;
17451;SDS011;8843;48.838;9.324;2022-07-10T06:56:57;3.57;;;2.27;;
17451;SDS011;8843;48.838;9.324;2022-07-10T06:59:24;3.00;;;2.30;;
17451;SDS011;8843;48.838;9.324;2022-07-10T07:01:51;3.97;;;2.10;;
17451;SDS011;8843;48.838;9.324;2022-07-10T07:04:18;2.50;;;2.00;;
17451;SDS011;8843;48.838;9.324;2022-07-10T07:06:44;2.20;;;1.97;;
17451;SDS011;8843;48.838;9.324;2022-07-10T07:09:11;3.57;;;1.83;;
17451;SDS011;8843;48.838;9.324;2022-07-10T07:11:38;3.90;;;1.70;;
17451;SDS011;8843;48.838;9.324;2022-07-10T07:14:06;2.47;;;1.73;;
17451;SDS011;8843;48.838;9.324;2022-07-10T07:16:33;2.60;;;1.70;;
17451;SDS011;8843;48.838;9.324;2022-07-10T07:19:08;2.20;;;1.83;;
17451;SDS011;8843;48.838;9.324;2022-07-10T07:21:36;2.90;;;1.70;;
17451;SDS011;8843;48.838;9.324;2022-07-10T07:24:21;2.63;;;1.57;;
17451;SDS011;8843;48.838;9.324;2022-07-10T07:26:48;2.67;;;1.40;;
17451;SDS011;8843;48.838;9.324;2022-07-10T07:29:17;3.03;;;1.60;;
17451;SDS011;8843;48.838;9.324;2022-07-10T07:31:44;5.87;;;1.53;;
17451;SDS011;8843;48.838;9.324;2022-07-10T07:34:11;6.07;;;1.57;;
17451;SDS011;8843;48.838;9.324;2022-07-10T07:36:38;4.07;;;1.87;;
17451;SDS011;8843;48.838;9.324;2022-07-10T07:39:05;5.27;;;1.80;;
17451;SDS011;8843;48.838;9.324;2022-07-10T07:41:32;4.40;;;1.90;;
17451;SDS011;8843;48.838;9.324;2022-07-10T07:43:58;1.53;;;1.43;;
17451;SDS011;8843;48.838;9.324;2022-07-10T07:46:27;3.87;;;1.87;;
17451;SDS011;8843;48.838;9.324;2022-07-10T07:48:54;6.13;;;1.80;;
17451;SDS011;8843;48.838;9.324;2022-07-10T07:51:22;3.57;;;1.80;;
17451;SDS011;8843;48.838;9.324;2022-07-10T07:53:49;4.07;;;2.10;;
17451;SDS011;8843;48.838;9.324;2022-07-10T07:56:16;3.13;;;1.70;;
17451;SDS011;8843;48.838;9.324;2022-07-10T07:58:43;1.90;;;1.60;;
17451;SDS011;8843;48.838;9.324;2022-07-10T08:01:09;1.83;;;1.43;;
17451;SDS011;8843;48.838;9.324;2022-07-10T08:03:38;3.67;;;2.17;;
17451;SDS011;8843;48.838;9.324;2022-07-10T08:06:04;2.63;;;1.63;;
17451;SDS011;8843;48.838;9.324;2022-07-10T08:08:31;3.10;;;1.87;;
17451;SDS011;8843;48.838;9.324;2022-07-10T08:10:58;2.97;;;1.70;;
17451;SDS011;8843;48.838;9.324;2022-07-10T08:13:25;2.40;;;1.60;;
17451;SDS011;8843;48.838;9.324;2022-07-10T08:15:52;3.67;;;1.70;;
17451;SDS011;8843;48.838;9.324;2022-07-10T08:18:19;2.57;;;1.73;;
17451;SDS011;8843;48.838;9.324;2022-07-10T08:20:47;3.30;;;1.40;;
17451;SDS011;8843;48.838;9.324;2022-07-10T08:23:14;2.90;;;1.87;;
17451;SDS011;8843;48.838;9.324;2022-07-10T08:25:41;2.30;;;1.60;;
17451;SDS011;8843;48.838;9.324;2022-07-10T08:28:08;2.20;;;1.40;;
17451;SDS011;8843;48.838;9.324;2022-07-10T08:30:35;2.00;;;1.63;;
17451;SDS011;8843;48.838;9.324;2022-07-10T08:33:02;5.73;;;1.57;;
17451;SDS011;8843;48.838;9.324;2022-07-10T08:35:29;5.07;;;2.00;;
17451;SDS011;8843;48.838;9.324;2022-07-10T08:37:58;1.57;;;1.30;;
17451;SDS011;8843;48.838;9.324;2022-07-10T08:40:26;2.90;;;1.77;;
17451;SDS011;8843;48.838;9.324;2022-07-10T08:43:01;4.27;;;2.00;;
17451;SDS011;8843;48.838;9.324;2022-07-10T08:45:29;1.80;;;1.70;;
17451;SDS011;8843;48.838;9.324;2022-07-10T08:47:58;4.13;;;1.90;;
17451;SDS011;8843;48.838;9.324;2022-07-10T08:50:29;3.07;;;1.60;;
17451;SDS011;8843;48.838;9.324;2022-07-10T08:53:00;2.27;;;1.67;;
17451;SDS011;8843;48.838;9.324;2022-07-10T08:55:34;3.57;;;1.60;;
17451;SDS011;8843;48.838;9.324;2022-07-10T08:58:02;4.77;;;1.90;;
17451;SDS011;8843;48.838;9.324;2022-07-10T09:00:30;2.40;;;1.57;;
17451;SDS011;8843;48.838;9.324;2022-07-10T09:02:57;1.83;;;1.50;;
17451;SDS011;8843;48.838;9.324;2022-07-10T09:05:24;5.27;;;1.60;;
17451;SDS011;8843;48.838;9.324;2022-07-10T09:07:52;3.43;;;1.67;;
17451;SDS011;8843;48.838;9.324;2022-07-10T09:10:23;1.90;;;1.70;;
17451;SDS011;8843;48.838;9.324;2022-07-10T09:12:52;4.23;;;1.30;;
17451;SDS011;8843;48.838;9.324;2022-07-10T09:15:21;2.93;;;1.70;;
17451;SDS011;8843;48.838;9.324;2022-07-10T09:17:50;3.27;;;1.93;;
17451;SDS011;8843;48.838;9.324;2022-07-10T09:20:24;2.30;;;1.67;;
17451;SDS011;8843;48.838;9.324;2022-07-10T09:22:52;3.03;;;1.80;;
17451;SDS011;8843;48.838;9.324;2022-07-10T09:25:21;1.43;;;1.33;;
17451;SDS011;8843;48.838;9.324;2022-07-10T09:27:51;1.73;;;1.60;;
17451;SDS011;8843;48.838;9.324;2022-07-10T09:30:30;4.83;;;1.40;;
17451;SDS011;8843;48.838;9.324;2022-07-10T09:35:53;2.10;;;1.90;;
17451;SDS011;8843;48.838;9.324;2022-07-10T09:38:50;2.40;;;1.63;;
17451;SDS011;8843;48.838;9.324;2022-07-10T09:41:24;6.30;;;2.00;;
17451;SDS011;8843;48.838;9.324;2022-07-10T09:43:53;3.93;;;1.47;;
17451;SDS011;8843;48.838;9.324;2022-07-10T09:46:22;3.63;;;1.53;;
17451;SDS011;8843;48.838;9.324;2022-07-10T09:49:00;3.20;;;2.23;;
17451;SDS011;8843;48.838;9.324;2022-07-10T09:51:29;2.60;;;1.40;;
17451;SDS011;8843;48.838;9.324;2022-07-10T09:53:59;2.00;;;1.47;;
17451;SDS011;8843;48.838;9.324;2022-07-10T09:56:32;2.93;;;1.70;;
17451;SDS011;8843;48.838;9.324;2022-07-10T09:59:04;2.53;;;1.50;;
17451;SDS011;8843;48.838;9.324;2022-07-10T10:01:35;4.40;;;1.57;;
17451;SDS011;8843;48.838;9.324;2022-07-10T10:04:02;3.90;;;1.60;;
17451;SDS011;8843;48.838;9.324;2022-07-10T10:06:30;2.63;;;1.47;;
17451;SDS011;8843;48.838;9.324;2022-07-10T10:09:02;2.97;;;1.40;;
17451;SDS011;8843;48.838;9.324;2022-07-10T10:11:33;4.27;;;1.70;;
17451;SDS011;8843;48.838;9.324;2022-07-10T10:14:02;2.63;;;1.67;;
17451;SDS011;8843;48.838;9.324;2022-07-10T10:16:29;3.40;;;1.70;;
17451;SDS011;8843;48.838;9.324;2022-07-10T10:18:56;3.77;;;1.70;;
17451;SDS011;8843;48.838;9.324;2022-07-10T10:21:42;2.23;;;1.30;;
17451;SDS011;8843;48.838;9.324;2022-07-10T10:24:10;4.10;;;1.60;;
17451;SDS011;8843;48.838;9.324;2022-07-10T10:26:40;2.73;;;1.67;;
17451;SDS011;8843;48.838;9.324;2022-07-10T10:29:08;2.03;;;1.63;;
17451;SDS011;8843;48.838;9.324;2022-07-10T10:31:36;1.30;;;1.10;;
17451;SDS011;8843;48.838;9.324;2022-07-10T10:34:05;2.80;;;1.27;;
17451;SDS011;8843;48.838;9.324;2022-07-10T10:36:44;4.33;;;2.30;;
17451;SDS011;8843;48.838;9.324;2022-07-10T10:39:17;4.97;;;1.80;;
17451;SDS011;8843;48.838;9.324;2022-07-10T10:41:50;3.53;;;1.30;;
17451;SDS011;8843;48.838;9.324;2022-07-10T10:44:25;1.10;;;1.10;;
17451;SDS011;8843;48.838;9.324;2022-07-10T10:47:00;1.90;;;1.10;;
17451;SDS011;8843;48.838;9.324;2022-07-10T10:49:48;3.47;;;1.50;;
17451;SDS011;8843;48.838;9.324;2022-07-10T10:52:19;2.00;;;1.27;;
17451;SDS011;8843;48.838;9.324;2022-07-10T10:55:00;2.43;;;1.27;;
17451;SDS011;8843;48.838;9.324;2022-07-10T10:57:41;2.17;;;1.43;;
17451;SDS011;8843;48.838;9.324;2022-07-10T11:03:14;3.83;;;1.00;;
17451;SDS011;8843;48.838;9.324;2022-07-10T11:05:46;1.90;;;1.00;;
17451;SDS011;8843;48.838;9.324;2022-07-10T11:08:14;3.27;;;1.50;;
17451;SDS011;8843;48.838;9.324;2022-07-10T11:11:02;4.10;;;1.60;;
17451;SDS011;8843;48.838;9.324;2022-07-10T11:14:04;2.37;;;1.50;;
17451;SDS011;8843;48.838;9.324;2022-07-10T11:16:32;1.63;;;0.97;;
17451;SDS011;8843;48.838;9.324;2022-07-10T11:19:00;1.37;;;1.27;;
17451;SDS011;8843;48.838;9.324;2022-07-10T11:21:28;1.30;;;1.20;;
17451;SDS011;8843;48.838;9.324;2022-07-10T11:24:11;2.00;;;1.20;;
17451;SDS011;8843;48.838;9.324;2022-07-10T11:26:55;2.60;;;1.40;;
17451;SDS011;8843;48.838;9.324;2022-07-10T11:29:29;7.03;;;1.70;;
17451;SDS011;8843;48.838;9.324;2022-07-10T11:32:02;2.27;;;1.43;;
17451;SDS011;8843;48.838;9.324;2022-07-10T11:34:34;1.63;;;1.20;;
17451;SDS011;8843;48.838;9.324;2022-07-10T11:37:01;3.10;;;1.23;;
17451;SDS011;8843;48.838;9.324;2022-07-10T11:39:28;2.10;;;1.30;;
17451;SDS011;8843;48.838;9.324;2022-07-10T11:41:55;2.03;;;1.50;;
17451;SDS011;8843;48.838;9.324;2022-07-10T11:44:22;2.80;;;1.27;;
17451;SDS011;8843;48.838;9.324;2022-07-10T11:46:50;1.20;;;1.10;;
17451;SDS011;8843;48.838;9.324;2022-07-10T11:49:20;2.17;;;1.50;;
17451;SDS011;8843;48.838;9.324;2022-07-10T11:51:47;2.37;;;1.47;;
17451;SDS011;8843;48.838;9.324;2022-07-10T11:54:15;2.47;;;1.50;;
17451;SDS011;8843;48.838;9.324;2022-07-10T11:56:45;2.00;;;1.40;;
17451;SDS011;8843;48.838;9.324;2022-07-10T11:59:14;3.60;;;1.40;;
17451;SDS011;8843;48.838;9.324;2022-07-10T12:01:42;1.97;;;1.30;;
17451;SDS011;8843;48.838;9.324;2022-07-10T12:04:12;2.13;;;1.40;;
17451;SDS011;8843;48.838;9.324;2022-07-10T12:06:40;3.77;;;1.30;;
17451;SDS011;8843;48.838;9.324;2022-07-10T12:09:09;1.40;;;1.30;;
17451;SDS011;8843;48.838;9.324;2022-07-10T12:11:37;2.70;;;1.77;;
17451;SDS011;8843;48.838;9.324;2022-07-10T12:14:09;2.30;;;1.20;;
17451;SDS011;8843;48.838;9.324;2022-07-10T12:16:39;3.03;;;1.40;;
17451;SDS011;8843;48.838;9.324;2022-07-10T12:19:07;2.47;;;1.13;;
17451;SDS011;8843;48.838;9.324;2022-07-10T12:21:36;2.53;;;1.23;;
17451;SDS011;8843;48.838;9.324;2022-07-10T12:24:05;2.17;;;1.70;;
17451;SDS011;8843;48.838;9.324;2022-07-10T12:26:33;5.70;;;1.70;;
17451;SDS011;8843;48.838;9.324;2022-07-10T12:29:01;1.23;;;1.13;;
17451;SDS011;8843;48.838;9.324;2022-07-10T12:31:30;4.67;;;1.37;;
17451;SDS011;8843;48.838;9.324;2022-07-10T12:33:58;1.43;;;1.17;;
17451;SDS011;8843;48.838;9.324;2022-07-10T12:36:41;3.13;;;1.17;;
17451;SDS011;8843;48.838;9.324;2022-07-10T12:39:09;1.97;;;1.23;;
17451;SDS011;8843;48.838;9.324;2022-07-10T12:44:29;2.43;;;1.23;;
17451;SDS011;8843;48.838;9.324;2022-07-10T12:47:01;2.07;;;1.40;;
17451;SDS011;8843;48.838;9.324;2022-07-10T12:49:29;3.20;;;1.10;;
17451;SDS011;8843;48.838;9.324;2022-07-10T12:51:57;2.07;;;0.93;;
17451;SDS011;8843;48.838;9.324;2022-07-10T12:54:31;5.20;;;1.20;;
17451;SDS011;8843;48.838;9.324;2022-07-10T12:57:02;2.63;;;1.10;;
17451;SDS011;8843;48.838;9.324;2022-07-10T12:59:32;2.50;;;1.47;;
17451;SDS011;8843;48.838;9.324;2022-07-10T13:02:11;1.20;;;1.10;;
17451;SDS011;8843;48.838;9.324;2022-07-10T13:04:51;1.83;;;1.40;;
17451;SDS011;8843;48.838;9.324;2022-07-10T13:07:19;2.07;;;1.00;;
17451;SDS011;8843;48.838;9.324;2022-07-10T13:09:54;2.03;;;1.10;;
17451;SDS011;8843;48.838;9.324;2022-07-10T13:12:21;3.73;;;1.20;;
17451;SDS011;8843;48.838;9.324;2022-07-10T13:14:48;1.63;;;1.00;;
17451;SDS011;8843;48.838;9.324;2022-07-10T13:17:16;1.70;;;1.10;;
17451;SDS011;8843;48.838;9.324;2022-07-10T13:19:42;1.77;;;1.00;;
17451;SDS011;8843;48.838;9.324;2022-07-10T13:22:09;2.43;;;1.33;;
17451;SDS011;8843;48.838;9.324;2022-07-10T13:24:38;1.63;;;1.00;;
17451;SDS011;8843;48.838;9.324;2022-07-10T13:27:05;1.60;;;1.17;;
17451;SDS011;8843;48.838;9.324;2022-07-10T13:29:32;2.47;;;0.90;;
17451;SDS011;8843;48.838;9.324;2022-07-10T13:31:59;1.87;;;1.33;;
17451;SDS011;8843;48.838;9.324;2022-07-10T13:34:26;2.27;;;1.03;;
17451;SDS011;8843;48.838;9.324;2022-07-10T13:36:54;1.90;;;0.97;;
17451;SDS011;8843;48.838;9.324;2022-07-10T13:39:21;1.33;;;1.00;;
17451;SDS011;8843;48.838;9.324;2022-07-10T13:41:49;2.47;;;1.10;;
17451;SDS011;8843;48.838;9.324;2022-07-10T13:44:17;2.37;;;1.40;;
17451;SDS011;8843;48.838;9.324;2022-07-10T13:46:44;1.20;;;1.10;;
17451;SDS011;8843;48.838;9.324;2022-07-10T13:49:11;1.40;;;1.10;;
17451;SDS011;8843;48.838;9.324;2022-07-10T13:51:38;2.30;;;1.23;;
17451;SDS011;8843;48.838;9.324;2022-07-10T13:54:05;1.47;;;0.97;;
17451;SDS011;8843;48.838;9.324;2022-07-10T13:56:32;2.00;;;1.10;;
17451;SDS011;8843;48.838;9.324;2022-07-10T13:59:01;2.57;;;1.20;;
17451;SDS011;8843;48.838;9.324;2022-07-10T14:01:28;1.20;;;1.00;;
17451;SDS011;8843;48.838;9.324;2022-07-10T14:03:55;1.17;;;0.80;;
17451;SDS011;8843;48.838;9.324;2022-07-10T14:06:21;4.90;;;1.10;;
17451;SDS011;8843;48.838;9.324;2022-07-10T14:08:48;2.67;;;1.27;;
17451;SDS011;8843;48.838;9.324;2022-07-10T14:11:15;2.50;;;1.07;;
17451;SDS011;8843;48.838;9.324;2022-07-10T14:13:44;3.00;;;0.90;;
17451;SDS011;8843;48.838;9.324;2022-07-10T14:16:12;1.43;;;0.90;;
17451;SDS011;8843;48.838;9.324;2022-07-10T14:18:39;1.80;;;0.80;;
17451;SDS011;8843;48.838;9.324;2022-07-10T14:21:07;2.80;;;1.10;;
17451;SDS011;8843;48.838;9.324;2022-07-10T14:23:35;2.90;;;1.10;;
17451;SDS011;8843;48.838;9.324;2022-07-10T14:26:06;1.53;;;0.97;;
17451;SDS011;8843;48.838;9.324;2022-07-10T14:28:33;3.63;;;1.40;;
17451;SDS011;8843;48.838;9.324;2022-07-10T14:31:00;1.00;;;1.00;;
17451;SDS011;8843;48.838;9.324;2022-07-10T14:33:30;1.10;;;1.00;;
17451;SDS011;8843;48.838;9.324;2022-07-10T14:35:57;1.50;;;0.90;;
17451;SDS011;8843;48.838;9.324;2022-07-10T14:38:24;1.67;;;1.00;;
17451;SDS011;8843;48.838;9.324;2022-07-10T14:40:52;1.47;;;0.80;;
17451;SDS011;8843;48.838;9.324;2022-07-10T14:43:20;1.87;;;1.00;;
17451;SDS011;8843;48.838;9.324;2022-07-10T14:45:47;3.90;;;1.40;;
17451;SDS011;8843;48.838;9.324;2022-07-10T14:48:14;2.00;;;1.10;;
17451;SDS011;8843;48.838;9.324;2022-07-10T14:50:43;7.20;;;1.20;;
17451;SDS011;8843;48.838;9.324;2022-07-10T14:53:10;3.77;;;1.40;;
17451;SDS011;8843;48.838;9.324;2022-07-10T14:55:36;1.43;;;0.80;;
17451;SDS011;8843;48.838;9.324;2022-07-10T14:58:03;2.10;;;1.10;;
17451;SDS011;8843;48.838;9.324;2022-07-10T15:00:30;2.73;;;0.83;;
17451;SDS011;8843;48.838;9.324;2022-07-10T15:02:58;2.97;;;1.13;;
17451;SDS011;8843;48.838;9.324;2022-07-10T15:05:25;3.70;;;1.20;;
17451;SDS011;8843;48.838;9.324;2022-07-10T15:07:54;1.57;;;1.10;;
17451;SDS011;8843;48.838;9.324;2022-07-10T15:10:21;2.07;;;1.00;;
17451;SDS011;8843;48.838;9.324;2022-07-10T15:12:47;3.30;;;1.67;;
17451;SDS011;8843;48.838;9.324;2022-07-10T15:15:14;1.23;;;0.90;;
17451;SDS011;8843;48.838;9.324;2022-07-10T15:17:41;1.53;;;1.03;;